首页
METAR-TAF:

METAR-TAF

机场 :

吉隆坡国际机场

吉隆坡, 马来西亚

纬度: 02-44N, 经度: 101-42E, 海拔: 21米

当前天气观测

该预报发布于24分钟前的01:30 UTC
风速7节,风向东转东北,在东转东南之间变化
温度 29°C
湿度 66%
气压 1012 hPa
能见度10公里或以上
少量云层高于1700英尺, 积雨云.
多云层高于28000英尺

METAR: WMKK 230130Z 06007KT 010V110 9999 FEW017CB BKN280 29/22 Q1012 NOSIG

时间: 09:54 (01:54 UTC)

预报

该预报发布于2小时和54分钟前的23:00 UTC
预报有效从23日的 00点(UTC)到 24日的 06点(UTC)
风速5节,风向东北
能见度10公里或以上
少量云层高于1700英尺, 积雨云.
几率 30% :
短暂存在
从 23日的 08点(UTC)到 23日的 12点(UTC)
风速7节,风向南转西南
能見度: 4000
少量云层高于1700英尺, 积雨云.
散云层高于1800英尺
雷暴, 雨
成为
从 23日的 13点(UTC)到 23日的 14点(UTC)
风速3节,风向多变
少量云层高于2000英尺

TAF: WMKK 222300Z 2300/2406 05005KT 9999 FEW017CB PROB30 TEMPO 2308/2312 21007KT 4000 TSRA FEW017CB SCT018 BECMG 2313/2314 VRB03KT FEW020

超过4000个机场的气象观测和天气预报(METAR&TAF报告)。

可查询的气象台以黄色和红色小点在地图上表示。

将鼠标移到小点上方,可查看气象台名称。

然后点击查看天气观测和预报。

如需切换地图:点击带黑十字的绿色按钮放大地图;点击带横线的绿色按钮缩小地图;或者点击绿色箭头查看邻近地区的地图。


METAR-TAF: